Terminal Aerodrome Forecast
Issued by NWS

Home | Current Version | Previous Version | Text Only | Print | Product List | Glossary On
Versions: 1 2 3 4 5 6 7 8 9 10 11 12
000
FTAK31 PANC 211140
TAFAAQ
TAF
PAAQ 211140Z 2112/2212 VRB03KT P6SM SCT050 BKN080
     FM220300 VRB03KT P6SM -SN OVC035
     FM220900 VRB03KT P6SM BKN060=

USA.gov is the U.S. government's official web portal to all federal, state and local government web resources and services.